| time (UTC) | temp C | wind direction | speed KPH | gust KPH | rain 1hr cm | rain 24hr cm | rain mn cm | humidity % | barometer mb |
| 20260906125024 | 20 | 42 | 8.0 | 12.9 | 0.00 | 0.00 | 0.00 | 80 | 1017.1 |
| 20260906124024 | 20 | 35 | 8.0 | 12.9 | 0.00 | 0.00 | 0.00 | 81 | 1016.9 |
| 20260906123024 | 20 | 41 | 6.4 | 9.7 | 0.00 | 0.00 | 0.00 | 84 | 1016.8 |
| 20260906122024 | 19 | 25 | 8.0 | 12.9 | 0.00 | 0.00 | 0.00 | 87 | 1016.8 |
| 20260906121044 | 19 | 17 | 6.4 | 11.3 | 0.00 | 0.00 | 0.00 | 87 | 1016.7 |
| 20260906120024 | 18 | 20 | 8.0 | 14.5 | 0.00 | 0.00 | 0.00 | 88 | 1016.7 |
| 20260906115024 | 18 | 8 | 8.0 | 11.3 | 0.00 | 0.00 | 0.00 | 89 | 1016.6 |
| 20260906114024 | 18 | 17 | 8.0 | 11.3 | 0.00 | 0.00 | 0.00 | 89 | 1016.3 |
| 20260906113024 | 18 | 11 | 9.7 | 14.5 | 0.00 | 0.00 | 0.00 | 89 | 1016.2 |
| 20260906112045 | 19 | 25 | 9.7 | 11.3 | 0.00 | 0.00 | 0.00 | 89 | 1016.2 |
| 20260906111024 | 19 | 23 | 11.3 | 14.5 | 0.00 | 0.00 | 0.00 | 89 | 1016.1 |
| 20260906110024 | 19 | 17 | 9.7 | 17.7 | 0.00 | 0.00 | 0.00 | 89 | 1016.1 |
| 20260906105045 | 20 | 12 | 11.3 | 14.5 | 0.00 | 0.00 | 0.00 | 90 | 1016.0 |
| 20260906104024 | 20 | 24 | 9.7 | 12.9 | 0.00 | 0.00 | 0.00 | 90 | 1015.8 |
| 20260906103024 | 20 | 8 | 9.7 | 14.5 | 0.00 | 0.00 | 0.00 | 90 | 1015.6 |
| 20260906102024 | 20 | 25 | 9.7 | 12.9 | 0.00 | 0.00 | 0.00 | 91 | 1015.6 |
| 20260906101024 | 20 | 17 | 9.7 | 11.3 | 0.00 | 0.00 | 0.00 | 92 | 1015.6 |
| 20260906100024 | 20 | 28 | 11.3 | 16.1 | 0.00 | 0.00 | 0.00 | 92 | 1015.4 |
| 20260906095104 | 21 | 22 | 8.0 | 9.7 | 0.00 | 0.00 | 0.00 | 93 | 1015.3 |
| 20260906094024 | 21 | 6 | 9.7 | 14.5 | 0.00 | 0.00 | 0.00 | 93 | 1015.3 |
| 20260906093025 | 21 | 28 | 11.3 | 16.1 | 0.00 | 0.00 | 0.00 | 93 | 1015.3 |
| 20260906092024 | 21 | 10 | 9.7 | 16.1 | 0.00 | 0.00 | 0.00 | 94 | 1015.1 |
| 20260906091024 | 21 | 6 | 9.7 | 11.3 | 0.00 | 0.00 | 0.00 | 94 | 1014.9 |
| 20260906090025 | 21 | 10 | 9.7 | 14.5 | 0.00 | 0.00 | 0.00 | 95 | 1014.9 |
| 20260906085024 | 22 | 16 | 11.3 | 17.7 | 0.00 | 0.00 | 0.00 | 96 | 1014.8 |
| 20260906084025 | 22 | 5 | 8.0 | 12.9 | 0.00 | 0.00 | 0.00 | 96 | 1014.9 |
| 20260906083025 | 22 | 20 | 11.3 | 17.7 | 0.00 | 0.00 | 0.00 | 96 | 1014.8 |
| 20260906082024 | 22 | 10 | 9.7 | 14.5 | 0.00 | 0.00 | 0.00 | 95 | 1014.7 |
| 20260906081025 | 22 | 12 | 9.7 | 14.5 | 0.00 | 0.00 | 0.00 | 95 | 1014.8 |
| 20260906080024 | 22 | 10 | 11.3 | 16.1 | 0.00 | 0.00 | 0.00 | 95 | 1014.8 |
| 20260906075025 | 22 | 39 | 11.3 | 16.1 | 0.00 | 0.00 | 0.00 | 95 | 1014.9 |
| 20260906074026 | 22 | 25 | 9.7 | 12.9 | 0.00 | 0.00 | 0.00 | 95 | 1014.9 |
| 20260906073025 | 22 | 20 | 8.0 | 11.3 | 0.00 | 0.00 | 0.00 | 95 | 1014.9 |
| 20260906072025 | 22 | 20 | 11.3 | 14.5 | 0.00 | 0.00 | 0.00 | 95 | 1014.9 |
| 20260906071045 | 22 | 19 | 8.0 | 16.1 | 0.00 | 0.00 | 0.00 | 96 | 1014.8 |
| 20260906070025 | 22 | 26 | 8.0 | 11.3 | 0.00 | 0.00 | 0.00 | 96 | 1014.8 |
| 20260906065025 | 22 | 33 | 6.4 | 11.3 | 0.00 | 0.00 | 0.00 | 96 | 1014.8 |
| 20260906064045 | 22 | 15 | 4.8 | 8.0 | 0.00 | 0.00 | 0.00 | 96 | 1014.8 |
| 20260906063025 | 22 | 18 | 9.7 | 11.3 | 0.00 | 0.00 | 0.00 | 97 | 1014.8 |
| 20260906062025 | 22 | 22 | 8.0 | 12.9 | 0.00 | 0.00 | 0.00 | 97 | 1014.8 |
| 20260906061025 | 22 | 15 | 8.0 | 9.7 | 0.00 | 0.00 | 0.00 | 97 | 1014.8 |
| 20260906060025 | 22 | 12 | 8.0 | 11.3 | 0.00 | 0.00 | 0.00 | 96 | 1014.9 |
| 20260906055025 | 22 | 16 | 9.7 | 11.3 | 0.00 | 0.00 | 0.00 | 96 | 1014.9 |
| 20260906054025 | 22 | 3 | 6.4 | 9.7 | 0.00 | 0.00 | 0.00 | 96 | 1015.0 |
| 20260906053045 | 22 | 27 | 6.4 | 9.7 | 0.00 | 0.00 | 0.00 | 95 | 1014.9 |
| 20260906052045 | 22 | 21 | 8.0 | 11.3 | 0.00 | 0.00 | 0.00 | 95 | 1014.9 |
| 20260906051025 | 22 | 14 | 9.7 | 12.9 | 0.00 | 0.00 | 0.00 | 95 | 1014.7 |
| 20260906050025 | 22 | 12 | 6.4 | 11.3 | 0.00 | 0.00 | 0.00 | 95 | 1014.7 |
| 20260906045025 | 23 | 14 | 8.0 | 9.7 | 0.00 | 0.00 | 0.00 | 94 | 1014.5 |
| 20260906044025 | 23 | 14 | 6.4 | 9.7 | 0.00 | 0.00 | 0.00 | 94 | 1014.4 |
| 20260906043025 | 23 | 4 | 6.4 | 9.7 | 0.00 | 0.00 | 0.00 | 93 | 1014.3 |
| 20260906042025 | 23 | 11 | 6.4 | 9.7 | 0.00 | 0.00 | 0.00 | 92 | 1014.2 |
| 20260906041106 | 23 | 12 | 6.4 | 11.3 | 0.00 | 0.00 | 0.00 | 91 | 1014.1 |
| 20260906040026 | 23 | 21 | 8.0 | 11.3 | 0.00 | 0.00 | 0.00 | 91 | 1014.1 |
| 20260906035025 | 23 | 22 | 9.7 | 16.1 | 0.00 | 0.00 | 0.00 | 91 | 1014.0 |
| 20260906034025 | 23 | 22 | 9.7 | 12.9 | 0.00 | 0.00 | 0.00 | 91 | 1014.0 |
| 20260906033026 | 23 | 28 | 8.0 | 11.3 | 0.00 | 0.00 | 0.00 | 91 | 1014.0 |
| 20260906032025 | 24 | 33 | 8.0 | 11.3 | 0.00 | 0.00 | 0.00 | 91 | 1014.0 |
| 20260906031046 | 24 | 25 | 6.4 | 11.3 | 0.00 | 0.00 | 0.00 | 91 | 1014.2 |
| 20260906030025 | 24 | 18 | 8.0 | 11.3 | 0.00 | 0.00 | 0.00 | 90 | 1014.3 |
| 20260906025046 | 24 | 21 | 6.4 | 9.7 | 0.00 | 0.00 | 0.00 | 89 | 1014.2 |
| 20260906024026 | 25 | 21 | 6.4 | 9.7 | 0.00 | 0.00 | 0.00 | 88 | 1014.2 |
| 20260906023025 | 25 | 39 | 6.4 | 9.7 | 0.00 | 0.00 | 0.00 | 87 | 1014.2 |
| 20260906022025 | 25 | 5 | 4.8 | 4.8 | 0.00 | 0.00 | 0.00 | 86 | 1014.2 |
| 20260906021025 | 25 | 20 | 3.2 | 9.7 | 0.00 | 0.00 | 0.00 | 85 | 1014.1 |
| 20260906020025 | 25 | 24 | 4.8 | 8.0 | 0.00 | 0.00 | 0.00 | 83 | 1014.0 |
| 20260906015026 | 25 | 25 | 0.0 | 3.2 | 0.00 | 0.00 | 0.00 | 82 | 1013.9 |
| 20260906014026 | 25 | 13 | 6.4 | 11.3 | 0.00 | 0.00 | 0.00 | 81 | 1013.7 |
| 20260906013026 | 25 | 25 | 6.4 | 9.7 | 0.00 | 0.00 | 0.00 | 81 | 1013.6 |
| 20260906012026 | 26 | 19 | 9.7 | 12.9 | 0.00 | 0.00 | 0.00 | 81 | 1013.4 |
| 20260906011126 | 26 | 20 | 9.7 | 12.9 | 0.00 | 0.00 | 0.00 | 81 | 1013.3 |
| 20260906010106 | 26 | 13 | 8.0 | 11.3 | 0.00 | 0.00 | 0.00 | 83 | 1013.3 |
| 20260906005025 | 26 | 25 | 6.4 | 9.7 | 0.00 | 0.00 | 0.00 | 83 | 1013.1 |
| 20260906004025 | 26 | 21 | 11.3 | 14.5 | 0.00 | 0.00 | 0.00 | 81 | 1012.9 |
| 20260906003026 | 27 | 14 | 12.9 | 16.1 | 0.00 | 0.00 | 0.00 | 82 | 1012.7 |
| 20260906002026 | 27 | 9 | 6.4 | 17.7 | 0.00 | 0.00 | 0.00 | 87 | 1012.6 |
| 20260906001025 | 27 | 0.0 | 0.0 | 0.00 | 0.00 | 0.00 | 85 | 1012.3 | |
| 20260906000026 | 28 | 0.0 | 0.0 | 0.00 | 0.00 | 0.00 | 84 | 1012.3 | |
| 20260905235026 | 28 | 230 | 1.6 | 3.2 | 0.00 | 0.00 | 0.00 | 80 | 1012.6 |
| 20260905234025 | 29 | 0.0 | 0.0 | 0.00 | 0.00 | 0.00 | 79 | 1012.7 | |
| 20260905233026 | 29 | 0.0 | 0.0 | 0.00 | 0.00 | 0.00 | 78 | 1012.5 | |
| 20260905232025 | 30 | 0.0 | 0.0 | 0.00 | 0.00 | 0.00 | 77 | 1012.8 | |
| 20260905231026 | 30 | 0.0 | 0.0 | 0.00 | 0.00 | 0.00 | 76 | 1012.8 | |
| 20260905230026 | 30 | 0.0 | 0.0 | 0.00 | 0.00 | 0.00 | 75 | 1013.0 | |
| 20260905225045 | 30 | 0.0 | 0.0 | 0.00 | 0.00 | 0.00 | 74 | 1013.0 | |
| 20260905224026 | 30 | 0.0 | 0.0 | 0.00 | 0.00 | 0.00 | 75 | 1012.8 | |
| 20260905223026 | 30 | 0.0 | 0.0 | 0.00 | 0.00 | 0.00 | 72 | 1012.4 | |
| 20260905222026 | 31 | 0.0 | 0.0 | 0.00 | 0.00 | 0.00 | 71 | 1012.5 | |
| 20260905221026 | 31 | 0.0 | 0.0 | 0.00 | 0.00 | 0.00 | 68 | 1012.5 | |
| 20260905220026 | 32 | 0.0 | 0.0 | 0.00 | 0.00 | 0.00 | 63 | 1012.5 | |
| 20260905215026 | 33 | 297 | 1.6 | 4.8 | 0.00 | 0.00 | 0.00 | 58 | 1012.4 |
| 20260905214026 | 34 | 278 | 3.2 | 6.4 | 0.00 | 0.00 | 0.00 | 55 | 1012.4 |
| 20260905213026 | 35 | 328 | 1.6 | 3.2 | 0.00 | 0.00 | 0.00 | 55 | 1012.5 |
| 20260905212026 | 35 | 347 | 4.8 | 9.7 | 0.00 | 0.00 | 0.00 | 53 | 1012.6 |
| 20260905211525 | 35 | 268 | 1.6 | 4.8 | 0.00 | 0.00 | 0.00 | 54 | 1012.7 |
| 20260905210526 | 35 | 345 | 3.2 | 6.4 | 0.00 | 0.00 | 0.00 | 53 | 1012.8 |
| 20260905205526 | 35 | 9 | 1.6 | 4.8 | 0.00 | 0.00 | 0.00 | 53 | 1013.0 |
| 20260905204527 | 35 | 247 | 3.2 | 8.0 | 0.00 | 0.00 | 0.00 | 52 | 1013.1 |
| 20260905203526 | 35 | 332 | 4.8 | 8.0 | 0.00 | 0.00 | 0.00 | 52 | 1013.1 |
| 20260905202526 | 35 | 229 | 6.4 | 11.3 | 0.00 | 0.00 | 0.00 | 56 | 1013.2 |
| 20260905201526 | 34 | 211 | 8.0 | 12.9 | 0.00 | 0.00 | 0.00 | 53 | 1013.4 |
| 20260905200526 | 34 | 217 | 9.7 | 12.9 | 0.00 | 0.00 | 0.00 | 53 | 1013.5 |
| 20260905195546 | 34 | 210 | 6.4 | 12.9 | 0.00 | 0.00 | 0.00 | 52 | 1013.6 |
| 20260905194526 | 34 | 235 | 8.0 | 14.5 | 0.00 | 0.00 | 0.00 | 54 | 1013.6 |
| 20260905193526 | 33 | 210 | 4.8 | 9.7 | 0.00 | 0.00 | 0.00 | 53 | 1013.8 |
| 20260905192526 | 33 | 220 | 8.0 | 11.3 | 0.00 | 0.00 | 0.00 | 55 | 1013.9 |
| 20260905191526 | 33 | 205 | 6.4 | 9.7 | 0.00 | 0.00 | 0.00 | 55 | 1014.0 |
| 20260905190526 | 32 | 217 | 9.7 | 16.1 | 0.00 | 0.00 | 0.00 | 58 | 1014.1 |
| 20260905185526 | 32 | 220 | 9.7 | 12.9 | 0.00 | 0.00 | 0.00 | 57 | 1014.2 |
| 20260905184526 | 32 | 207 | 8.0 | 11.3 | 0.00 | 0.00 | 0.00 | 58 | 1014.4 |
| 20260905183526 | 32 | 212 | 11.3 | 19.3 | 0.00 | 0.00 | 0.00 | 58 | 1014.5 |
| 20260905182526 | 32 | 215 | 8.0 | 12.9 | 0.00 | 0.00 | 0.00 | 58 | 1014.6 |
| 20260905181546 | 32 | 227 | 8.0 | 16.1 | 0.00 | 0.00 | 0.00 | 58 | 1014.5 |
| 20260905180526 | 31 | 205 | 11.3 | 16.1 | 0.00 | 0.00 | 0.00 | 59 | 1014.6 |
| 20260905175526 | 31 | 212 | 9.7 | 16.1 | 0.00 | 0.00 | 0.00 | 59 | 1014.6 |
| 20260905174526 | 31 | 205 | 11.3 | 16.1 | 0.00 | 0.00 | 0.00 | 58 | 1014.7 |
| 20260905173526 | 31 | 190 | 9.7 | 14.5 | 0.00 | 0.00 | 0.00 | 59 | 1014.8 |
| 20260905172547 | 31 | 203 | 9.7 | 16.1 | 0.00 | 0.00 | 0.00 | 58 | 1015.0 |
| 20260905171526 | 31 | 205 | 8.0 | 12.9 | 0.00 | 0.00 | 0.00 | 58 | 1015.2 |
| 20260905170526 | 31 | 218 | 6.4 | 11.3 | 0.00 | 0.00 | 0.00 | 57 | 1015.4 |
| 20260905165526 | 31 | 207 | 4.8 | 8.0 | 0.00 | 0.00 | 0.00 | 58 | 1015.7 |
| 20260905164526 | 30 | 167 | 8.0 | 12.9 | 0.00 | 0.00 | 0.00 | 58 | 1015.7 |
| 20260905163607 | 30 | 239 | 4.8 | 12.9 | 0.00 | 0.00 | 0.00 | 58 | 1015.9 |
| 20260905162526 | 29 | 217 | 9.7 | 14.5 | 0.00 | 0.00 | 0.00 | 60 | 1015.8 |
| 20260905161526 | 30 | 188 | 9.7 | 12.9 | 0.00 | 0.00 | 0.00 | 60 | 1015.9 |
| 20260905160528 | 30 | 216 | 8.0 | 12.9 | 0.00 | 0.00 | 0.00 | 60 | 1015.8 |
| 20260905155526 | 30 | 186 | 6.4 | 9.7 | 0.00 | 0.00 | 0.00 | 59 | 1015.8 |
| 20260905154607 | 30 | 180 | 8.0 | 12.9 | 0.00 | 0.00 | 0.00 | 59 | 1015.7 |
| 20260905153526 | 30 | 195 | 6.4 | 9.7 | 0.00 | 0.00 | 0.00 | 58 | 1015.8 |
| 20260905152526 | 28 | 174 | 3.2 | 8.0 | 0.00 | 0.00 | 0.00 | 60 | 1015.7 |
| 20260905151527 | 28 | 194 | 9.7 | 14.5 | 0.00 | 0.00 | 0.00 | 61 | 1015.7 |
| 20260905150526 | 28 | 167 | 6.4 | 9.7 | 0.00 | 0.00 | 0.00 | 60 | 1015.7 |
| 20260905145526 | 28 | 126 | 6.4 | 9.7 | 0.00 | 0.00 | 0.00 | 61 | 1015.7 |
| 20260905144547 | 27 | 140 | 6.4 | 14.5 | 0.00 | 0.00 | 0.00 | 62 | 1015.7 |
| 20260905143527 | 27 | 141 | 9.7 | 14.5 | 0.00 | 0.00 | 0.00 | 63 | 1015.7 |
| 20260905142708 | 27 | 119 | 8.0 | 16.1 | 0.00 | 0.00 | 0.00 | 63 | 1015.8 |
| 20260905141527 | 26 | 99 | 9.7 | 14.5 | 0.00 | 0.00 | 0.00 | 67 | 1015.9 |
| 20260905140526 | 26 | 118 | 6.4 | 12.9 | 0.00 | 0.00 | 0.00 | 69 | 1016.1 |
| 20260905135526 | 25 | 115 | 11.3 | 16.1 | 0.00 | 0.00 | 0.00 | 70 | 1016.1 |
| 20260905134526 | 25 | 87 | 8.0 | 14.5 | 0.00 | 0.00 | 0.00 | 70 | 1016.4 |
| 20260905133547 | 25 | 125 | 8.0 | 12.9 | 0.00 | 0.00 | 0.00 | 73 | 1016.6 |
| 20260905132527 | 24 | 100 | 8.0 | 12.9 | 0.00 | 0.00 | 0.00 | 74 | 1016.8 |
| 20260905131547 | 23 | 103 | 8.0 | 14.5 | 0.00 | 0.00 | 0.00 | 77 | 1016.6 |
| 20260905130527 | 23 | 111 | 9.7 | 14.5 | 0.00 | 0.00 | 0.00 | 79 | 1016.7 |